sensor_id;sensor_type;location;lat;lon;timestamp;temperature;humidity
27270;DHT22;14769;56.934;24.176;2023-02-28T00:00:30;0.00;99.90
27270;DHT22;14769;56.934;24.176;2023-02-28T00:01:33;0.00;99.90
27270;DHT22;14769;56.934;24.176;2023-02-28T00:02:41;0.00;99.90
27270;DHT22;14769;56.934;24.176;2023-02-28T00:03:44;0.00;99.90
27270;DHT22;14769;56.934;24.176;2023-02-28T00:04:46;0.00;99.90
27270;DHT22;14769;56.934;24.176;2023-02-28T00:05:54;0.00;99.90
27270;DHT22;14769;56.934;24.176;2023-02-28T00:06:59;0.00;99.90
27270;DHT22;14769;56.934;24.176;2023-02-28T00:08:01;0.00;99.90
27270;DHT22;14769;56.934;24.176;2023-02-28T00:09:03;0.00;99.90
27270;DHT22;14769;56.934;24.176;2023-02-28T00:10:07;0.00;99.90
27270;DHT22;14769;56.934;24.176;2023-02-28T00:11:11;0.00;99.90
27270;DHT22;14769;56.934;24.176;2023-02-28T00:12:13;0.00;99.90
27270;DHT22;14769;56.934;24.176;2023-02-28T00:13:16;0.00;99.90
27270;DHT22;14769;56.934;24.176;2023-02-28T00:14:18;0.00;99.90
27270;DHT22;14769;56.934;24.176;2023-02-28T00:15:20;0.00;99.90
27270;DHT22;14769;56.934;24.176;2023-02-28T00:16:23;0.00;99.90
27270;DHT22;14769;56.934;24.176;2023-02-28T00:17:25;0.00;99.90
27270;DHT22;14769;56.934;24.176;2023-02-28T00:18:27;0.00;99.90
27270;DHT22;14769;56.934;24.176;2023-02-28T00:19:32;-0.10;99.90
27270;DHT22;14769;56.934;24.176;2023-02-28T00:20:33;-0.10;99.90
27270;DHT22;14769;56.934;24.176;2023-02-28T00:21:35;-0.10;99.90
27270;DHT22;14769;56.934;24.176;2023-02-28T00:22:39;-0.10;99.90
27270;DHT22;14769;56.934;24.176;2023-02-28T00:23:41;-0.10;99.90
27270;DHT22;14769;56.934;24.176;2023-02-28T00:24:43;-0.10;99.90
27270;DHT22;14769;56.934;24.176;2023-02-28T00:25:45;-0.10;99.90
27270;DHT22;14769;56.934;24.176;2023-02-28T00:26:47;-0.10;99.90
27270;DHT22;14769;56.934;24.176;2023-02-28T00:27:49;-0.20;99.90
27270;DHT22;14769;56.934;24.176;2023-02-28T00:28:52;-0.20;99.90
27270;DHT22;14769;56.934;24.176;2023-02-28T00:29:54;-0.20;99.90
27270;DHT22;14769;56.934;24.176;2023-02-28T00:30:56;-0.20;99.90
27270;DHT22;14769;56.934;24.176;2023-02-28T00:31:59;-0.20;99.90
27270;DHT22;14769;56.934;24.176;2023-02-28T00:33:01;-0.20;99.90
27270;DHT22;14769;56.934;24.176;2023-02-28T00:34:03;-0.20;99.90
27270;DHT22;14769;56.934;24.176;2023-02-28T00:35:05;-0.20;99.90
27270;DHT22;14769;56.934;24.176;2023-02-28T00:36:10;-0.30;99.90
27270;DHT22;14769;56.934;24.176;2023-02-28T00:37:12;-0.30;99.90
27270;DHT22;14769;56.934;24.176;2023-02-28T00:38:15;-0.30;99.90
27270;DHT22;14769;56.934;24.176;2023-02-28T00:39:17;-0.30;99.90
27270;DHT22;14769;56.934;24.176;2023-02-28T00:40:20;-0.30;99.90
27270;DHT22;14769;56.934;24.176;2023-02-28T00:41:22;-0.30;99.90
27270;DHT22;14769;56.934;24.176;2023-02-28T00:42:24;-0.30;99.90
27270;DHT22;14769;56.934;24.176;2023-02-28T00:43:26;-0.40;99.90
27270;DHT22;14769;56.934;24.176;2023-02-28T00:44:28;-0.40;99.90
27270;DHT22;14769;56.934;24.176;2023-02-28T00:45:30;-0.40;99.90
27270;DHT22;14769;56.934;24.176;2023-02-28T00:46:32;-0.40;99.90
27270;DHT22;14769;56.934;24.176;2023-02-28T00:47:34;-0.40;99.90
27270;DHT22;14769;56.934;24.176;2023-02-28T00:48:37;-0.40;99.90
27270;DHT22;14769;56.934;24.176;2023-02-28T00:49:38;-0.40;99.90
27270;DHT22;14769;56.934;24.176;2023-02-28T00:50:40;-0.40;99.90
27270;DHT22;14769;56.934;24.176;2023-02-28T00:51:42;-0.40;99.90
27270;DHT22;14769;56.934;24.176;2023-02-28T00:52:44;-0.40;99.90
27270;DHT22;14769;56.934;24.176;2023-02-28T00:53:46;-0.40;99.90
27270;DHT22;14769;56.934;24.176;2023-02-28T00:54:48;-0.40;99.90
27270;DHT22;14769;56.934;24.176;2023-02-28T00:55:50;-0.40;99.90
27270;DHT22;14769;56.934;24.176;2023-02-28T00:56:52;-0.40;99.90
27270;DHT22;14769;56.934;24.176;2023-02-28T00:57:57;-0.40;99.90
27270;DHT22;14769;56.934;24.176;2023-02-28T00:58:59;-0.40;99.90
27270;DHT22;14769;56.934;24.176;2023-02-28T01:00:01;-0.40;99.90
27270;DHT22;14769;56.934;24.176;2023-02-28T01:01:03;-0.50;99.90
27270;DHT22;14769;56.934;24.176;2023-02-28T01:02:05;-0.40;99.90
27270;DHT22;14769;56.934;24.176;2023-02-28T01:03:07;-0.50;99.90
27270;DHT22;14769;56.934;24.176;2023-02-28T01:04:10;-0.40;99.90
27270;DHT22;14769;56.934;24.176;2023-02-28T01:05:11;-0.40;99.90
27270;DHT22;14769;56.934;24.176;2023-02-28T01:06:13;-0.40;99.90
27270;DHT22;14769;56.934;24.176;2023-02-28T01:07:15;-0.40;99.90
27270;DHT22;14769;56.934;24.176;2023-02-28T01:08:17;-0.50;99.90
27270;DHT22;14769;56.934;24.176;2023-02-28T01:09:19;-0.40;99.90
27270;DHT22;14769;56.934;24.176;2023-02-28T01:10:21;-0.40;99.90
27270;DHT22;14769;56.934;24.176;2023-02-28T01:11:23;-0.50;99.90
27270;DHT22;14769;56.934;24.176;2023-02-28T01:12:25;-0.50;99.90
27270;DHT22;14769;56.934;24.176;2023-02-28T01:13:30;-0.50;99.90
27270;DHT22;14769;56.934;24.176;2023-02-28T01:14:32;-0.40;99.90
27270;DHT22;14769;56.934;24.176;2023-02-28T01:15:34;-0.50;99.90
27270;DHT22;14769;56.934;24.176;2023-02-28T01:16:36;-0.40;99.90
27270;DHT22;14769;56.934;24.176;2023-02-28T01:17:38;-0.40;99.90
27270;DHT22;14769;56.934;24.176;2023-02-28T01:18:40;-0.40;99.90
27270;DHT22;14769;56.934;24.176;2023-02-28T01:19:42;-0.50;99.90
27270;DHT22;14769;56.934;24.176;2023-02-28T01:20:44;-0.50;99.90
27270;DHT22;14769;56.934;24.176;2023-02-28T01:21:47;-0.50;99.90
27270;DHT22;14769;56.934;24.176;2023-02-28T01:22:49;-0.50;99.90
27270;DHT22;14769;56.934;24.176;2023-02-28T01:23:51;-0.50;99.90
27270;DHT22;14769;56.934;24.176;2023-02-28T01:24:53;-0.50;99.90
27270;DHT22;14769;56.934;24.176;2023-02-28T01:25:55;-0.50;99.90
27270;DHT22;14769;56.934;24.176;2023-02-28T01:26:57;-0.50;99.90
27270;DHT22;14769;56.934;24.176;2023-02-28T01:27:59;-0.50;99.90
27270;DHT22;14769;56.934;24.176;2023-02-28T01:29:01;-0.50;99.90
27270;DHT22;14769;56.934;24.176;2023-02-28T01:30:03;-0.60;99.90
27270;DHT22;14769;56.934;24.176;2023-02-28T01:31:05;-0.50;99.90
27270;DHT22;14769;56.934;24.176;2023-02-28T01:32:07;-0.50;99.90
27270;DHT22;14769;56.934;24.176;2023-02-28T01:33:09;-0.60;99.90
27270;DHT22;14769;56.934;24.176;2023-02-28T01:34:11;-0.50;99.90
27270;DHT22;14769;56.934;24.176;2023-02-28T01:35:13;-0.60;99.90
27270;DHT22;14769;56.934;24.176;2023-02-28T01:36:22;-0.50;99.90
27270;DHT22;14769;56.934;24.176;2023-02-28T01:37:24;-0.50;99.90
27270;DHT22;14769;56.934;24.176;2023-02-28T01:38:26;-0.50;99.90
27270;DHT22;14769;56.934;24.176;2023-02-28T01:39:28;-0.50;99.90
27270;DHT22;14769;56.934;24.176;2023-02-28T01:40:30;-0.50;99.90
27270;DHT22;14769;56.934;24.176;2023-02-28T01:41:34;-0.50;99.90
27270;DHT22;14769;56.934;24.176;2023-02-28T01:42:36;-0.50;99.90
27270;DHT22;14769;56.934;24.176;2023-02-28T01:46:32;-0.50;99.90
27270;DHT22;14769;56.934;24.176;2023-02-28T01:47:41;-0.60;99.90
27270;DHT22;14769;56.934;24.176;2023-02-28T01:48:45;-0.50;99.90
27270;DHT22;14769;56.934;24.176;2023-02-28T01:49:48;-0.50;99.90
27270;DHT22;14769;56.934;24.176;2023-02-28T01:50:51;-0.50;99.90
27270;DHT22;14769;56.934;24.176;2023-02-28T01:51:54;-0.50;99.90
27270;DHT22;14769;56.934;24.176;2023-02-28T01:53:00;-0.50;99.90
27270;DHT22;14769;56.934;24.176;2023-02-28T01:54:09;-0.50;99.90
27270;DHT22;14769;56.934;24.176;2023-02-28T01:55:17;-0.50;99.90
27270;DHT22;14769;56.934;24.176;2023-02-28T01:56:24;-0.50;99.90
27270;DHT22;14769;56.934;24.176;2023-02-28T01:57:43;-0.50;99.90
27270;DHT22;14769;56.934;24.176;2023-02-28T01:58:49;-0.50;99.90
27270;DHT22;14769;56.934;24.176;2023-02-28T02:00:02;-0.50;99.90
27270;DHT22;14769;56.934;24.176;2023-02-28T02:01:09;-0.50;99.90
27270;DHT22;14769;56.934;24.176;2023-02-28T02:02:23;-0.50;99.90
27270;DHT22;14769;56.934;24.176;2023-02-28T02:03:26;-0.60;99.90
27270;DHT22;14769;56.934;24.176;2023-02-28T02:04:39;-0.60;99.90
27270;DHT22;14769;56.934;24.176;2023-02-28T02:05:42;-0.50;99.90
27270;DHT22;14769;56.934;24.176;2023-02-28T02:06:49;-0.60;99.90
27270;DHT22;14769;56.934;24.176;2023-02-28T02:07:55;-0.60;99.90
27270;DHT22;14769;56.934;24.176;2023-02-28T02:08:57;-0.60;99.90
27270;DHT22;14769;56.934;24.176;2023-02-28T02:10:02;-0.60;99.90
27270;DHT22;14769;56.934;24.176;2023-02-28T02:11:07;-0.60;99.90
27270;DHT22;14769;56.934;24.176;2023-02-28T02:12:47;-0.60;99.90
27270;DHT22;14769;56.934;24.176;2023-02-28T02:15:34;-0.60;99.90
27270;DHT22;14769;56.934;24.176;2023-02-28T02:16:53;-0.60;99.90
27270;DHT22;14769;56.934;24.176;2023-02-28T02:18:10;-0.60;99.90
27270;DHT22;14769;56.934;24.176;2023-02-28T02:24:51;-0.60;99.90
27270;DHT22;14769;56.934;24.176;2023-02-28T02:27:18;-0.60;99.90
27270;DHT22;14769;56.934;24.176;2023-02-28T02:29:47;-0.50;99.90
27270;DHT22;14769;56.934;24.176;2023-02-28T02:33:03;-0.50;99.90
27270;DHT22;14769;56.934;24.176;2023-02-28T02:34:32;-0.50;99.90
27270;DHT22;14769;56.934;24.176;2023-02-28T02:38:11;-0.50;99.90
27270;DHT22;14769;56.934;24.176;2023-02-28T02:39:49;-0.50;99.90
27270;DHT22;14769;56.934;24.176;2023-02-28T02:41:00;-0.50;99.90
27270;DHT22;14769;56.934;24.176;2023-02-28T02:42:16;-0.40;99.90
27270;DHT22;14769;56.934;24.176;2023-02-28T02:43:44;-0.40;99.90
27270;DHT22;14769;56.934;24.176;2023-02-28T02:44:52;-0.30;99.90
27270;DHT22;14769;56.934;24.176;2023-02-28T02:46:06;-0.30;99.90
27270;DHT22;14769;56.934;24.176;2023-02-28T02:47:13;-0.30;99.90
27270;DHT22;14769;56.934;24.176;2023-02-28T02:48:19;-0.20;99.90
27270;DHT22;14769;56.934;24.176;2023-02-28T02:49:27;-0.20;99.90
27270;DHT22;14769;56.934;24.176;2023-02-28T02:50:35;-0.20;99.90
27270;DHT22;14769;56.934;24.176;2023-02-28T02:51:39;-0.10;99.90
27270;DHT22;14769;56.934;24.176;2023-02-28T02:52:47;-0.10;99.90
27270;DHT22;14769;56.934;24.176;2023-02-28T02:54:00;-0.10;99.90
27270;DHT22;14769;56.934;24.176;2023-02-28T02:55:05;-0.10;99.90
27270;DHT22;14769;56.934;24.176;2023-02-28T02:56:08;0.00;99.90
27270;DHT22;14769;56.934;24.176;2023-02-28T02:57:11;-0.10;99.90
27270;DHT22;14769;56.934;24.176;2023-02-28T02:58:15;0.00;99.90
27270;DHT22;14769;56.934;24.176;2023-02-28T02:59:19;0.00;99.90
27270;DHT22;14769;56.934;24.176;2023-02-28T03:00:23;0.00;99.90
27270;DHT22;14769;56.934;24.176;2023-02-28T03:01:26;0.00;99.90
27270;DHT22;14769;56.934;24.176;2023-02-28T03:02:30;0.00;99.90
27270;DHT22;14769;56.934;24.176;2023-02-28T03:03:36;0.10;99.90
27270;DHT22;14769;56.934;24.176;2023-02-28T03:04:40;0.10;99.90
27270;DHT22;14769;56.934;24.176;2023-02-28T03:05:48;0.10;99.90
27270;DHT22;14769;56.934;24.176;2023-02-28T03:06:50;0.10;99.90
27270;DHT22;14769;56.934;24.176;2023-02-28T03:07:56;0.10;99.90
27270;DHT22;14769;56.934;24.176;2023-02-28T03:08:58;0.20;99.90
27270;DHT22;14769;56.934;24.176;2023-02-28T03:10:01;0.10;99.90
27270;DHT22;14769;56.934;24.176;2023-02-28T03:11:04;0.20;99.90
27270;DHT22;14769;56.934;24.176;2023-02-28T03:12:07;0.20;99.90
27270;DHT22;14769;56.934;24.176;2023-02-28T03:13:16;0.20;99.90
27270;DHT22;14769;56.934;24.176;2023-02-28T03:14:30;0.20;99.90
27270;DHT22;14769;56.934;24.176;2023-02-28T03:15:38;0.20;99.90
27270;DHT22;14769;56.934;24.176;2023-02-28T03:16:57;0.30;99.90
27270;DHT22;14769;56.934;24.176;2023-02-28T03:18:02;0.20;99.90
27270;DHT22;14769;56.934;24.176;2023-02-28T03:21:21;0.40;99.90
27270;DHT22;14769;56.934;24.176;2023-02-28T03:23:53;0.40;99.90
27270;DHT22;14769;56.934;24.176;2023-02-28T03:26:07;0.40;99.90
27270;DHT22;14769;56.934;24.176;2023-02-28T03:27:18;0.40;99.90
27270;DHT22;14769;56.934;24.176;2023-02-28T03:28:28;0.40;99.90
27270;DHT22;14769;56.934;24.176;2023-02-28T03:29:33;0.40;99.90
27270;DHT22;14769;56.934;24.176;2023-02-28T03:30:47;0.40;99.90
27270;DHT22;14769;56.934;24.176;2023-02-28T03:31:59;0.40;99.90
27270;DHT22;14769;56.934;24.176;2023-02-28T03:33:09;0.30;99.90
27270;DHT22;14769;56.934;24.176;2023-02-28T03:34:17;0.40;99.90
27270;DHT22;14769;56.934;24.176;2023-02-28T03:35:21;0.30;99.90
27270;DHT22;14769;56.934;24.176;2023-02-28T03:36:26;0.40;99.90
27270;DHT22;14769;56.934;24.176;2023-02-28T03:37:29;0.40;99.90
27270;DHT22;14769;56.934;24.176;2023-02-28T03:38:44;0.40;99.90
27270;DHT22;14769;56.934;24.176;2023-02-28T03:39:47;0.40;99.90
27270;DHT22;14769;56.934;24.176;2023-02-28T03:40:57;0.40;99.90
27270;DHT22;14769;56.934;24.176;2023-02-28T03:42:00;0.40;99.90
27270;DHT22;14769;56.934;24.176;2023-02-28T03:43:04;0.40;99.90
27270;DHT22;14769;56.934;24.176;2023-02-28T03:44:32;0.40;99.90
27270;DHT22;14769;56.934;24.176;2023-02-28T03:45:32;0.50;99.90
27270;DHT22;14769;56.934;24.176;2023-02-28T03:46:36;0.50;99.90
27270;DHT22;14769;56.934;24.176;2023-02-28T03:48:44;0.50;99.90
27270;DHT22;14769;56.934;24.176;2023-02-28T03:51:08;0.60;99.90
27270;DHT22;14769;56.934;24.176;2023-02-28T03:52:11;0.50;99.90
27270;DHT22;14769;56.934;24.176;2023-02-28T03:53:18;0.60;99.90
27270;DHT22;14769;56.934;24.176;2023-02-28T03:54:23;0.60;99.90
27270;DHT22;14769;56.934;24.176;2023-02-28T03:55:26;0.60;99.90
27270;DHT22;14769;56.934;24.176;2023-02-28T03:56:40;0.70;99.90
27270;DHT22;14769;56.934;24.176;2023-02-28T03:57:51;0.70;99.90
27270;DHT22;14769;56.934;24.176;2023-02-28T03:59:59;0.80;99.90
27270;DHT22;14769;56.934;24.176;2023-02-28T04:01:08;0.80;99.90
27270;DHT22;14769;56.934;24.176;2023-02-28T04:02:11;0.80;99.90
27270;DHT22;14769;56.934;24.176;2023-02-28T04:03:13;0.80;99.90
27270;DHT22;14769;56.934;24.176;2023-02-28T04:04:15;0.90;99.90
27270;DHT22;14769;56.934;24.176;2023-02-28T04:05:18;0.90;99.90
27270;DHT22;14769;56.934;24.176;2023-02-28T04:06:21;0.90;99.90
27270;DHT22;14769;56.934;24.176;2023-02-28T04:07:23;1.00;99.90
27270;DHT22;14769;56.934;24.176;2023-02-28T04:08:25;1.00;99.90
27270;DHT22;14769;56.934;24.176;2023-02-28T04:09:26;1.00;99.90
27270;DHT22;14769;56.934;24.176;2023-02-28T04:10:29;1.00;99.90
27270;DHT22;14769;56.934;24.176;2023-02-28T04:11:38;1.00;99.90
27270;DHT22;14769;56.934;24.176;2023-02-28T04:12:40;1.10;99.90
27270;DHT22;14769;56.934;24.176;2023-02-28T04:13:41;1.10;99.90
27270;DHT22;14769;56.934;24.176;2023-02-28T04:14:47;1.20;99.90
27270;DHT22;14769;56.934;24.176;2023-02-28T04:15:49;1.20;99.90
27270;DHT22;14769;56.934;24.176;2023-02-28T04:16:51;1.20;99.90
27270;DHT22;14769;56.934;24.176;2023-02-28T04:17:53;1.20;99.90
27270;DHT22;14769;56.934;24.176;2023-02-28T04:18:55;1.20;99.90
27270;DHT22;14769;56.934;24.176;2023-02-28T04:20:03;1.20;99.90
27270;DHT22;14769;56.934;24.176;2023-02-28T04:21:10;1.20;99.90
27270;DHT22;14769;56.934;24.176;2023-02-28T04:22:12;1.20;99.90
27270;DHT22;14769;56.934;24.176;2023-02-28T04:23:15;1.20;99.90
27270;DHT22;14769;56.934;24.176;2023-02-28T04:24:18;1.20;99.90
27270;DHT22;14769;56.934;24.176;2023-02-28T04:25:20;1.20;99.90
27270;DHT22;14769;56.934;24.176;2023-02-28T04:26:22;1.20;99.90
27270;DHT22;14769;56.934;24.176;2023-02-28T04:27:23;1.20;99.90
27270;DHT22;14769;56.934;24.176;2023-02-28T04:28:25;1.20;99.90
27270;DHT22;14769;56.934;24.176;2023-02-28T04:29:30;1.20;99.90
27270;DHT22;14769;56.934;24.176;2023-02-28T04:30:33;1.20;99.90
27270;DHT22;14769;56.934;24.176;2023-02-28T04:31:34;1.20;99.90
27270;DHT22;14769;56.934;24.176;2023-02-28T04:32:37;1.20;99.90
27270;DHT22;14769;56.934;24.176;2023-02-28T04:33:38;1.20;99.90
27270;DHT22;14769;56.934;24.176;2023-02-28T04:34:40;1.10;99.90
27270;DHT22;14769;56.934;24.176;2023-02-28T04:35:42;1.10;99.90
27270;DHT22;14769;56.934;24.176;2023-02-28T04:36:44;1.10;99.90
27270;DHT22;14769;56.934;24.176;2023-02-28T04:37:47;1.10;99.90
27270;DHT22;14769;56.934;24.176;2023-02-28T04:38:49;1.10;99.90
27270;DHT22;14769;56.934;24.176;2023-02-28T04:39:51;1.10;99.90
27270;DHT22;14769;56.934;24.176;2023-02-28T04:40:52;1.10;99.90
27270;DHT22;14769;56.934;24.176;2023-02-28T04:41:54;1.00;99.90
27270;DHT22;14769;56.934;24.176;2023-02-28T04:42:56;1.00;99.90
27270;DHT22;14769;56.934;24.176;2023-02-28T04:43:58;1.00;99.90
27270;DHT22;14769;56.934;24.176;2023-02-28T04:45:00;1.00;99.90
27270;DHT22;14769;56.934;24.176;2023-02-28T04:46:02;1.00;99.90
27270;DHT22;14769;56.934;24.176;2023-02-28T04:47:04;1.00;99.90
27270;DHT22;14769;56.934;24.176;2023-02-28T04:48:06;1.00;99.90
27270;DHT22;14769;56.934;24.176;2023-02-28T04:49:09;1.00;99.90
27270;DHT22;14769;56.934;24.176;2023-02-28T04:50:12;1.10;99.90
27270;DHT22;14769;56.934;24.176;2023-02-28T04:51:15;1.00;99.90
27270;DHT22;14769;56.934;24.176;2023-02-28T04:52:17;1.00;99.90
27270;DHT22;14769;56.934;24.176;2023-02-28T04:53:19;1.10;99.90
27270;DHT22;14769;56.934;24.176;2023-02-28T04:54:21;1.10;99.90
27270;DHT22;14769;56.934;24.176;2023-02-28T04:55:23;1.10;99.90
27270;DHT22;14769;56.934;24.176;2023-02-28T04:56:24;1.10;99.90
27270;DHT22;14769;56.934;24.176;2023-02-28T04:57:26;1.10;99.90
27270;DHT22;14769;56.934;24.176;2023-02-28T04:58:28;1.10;99.90
27270;DHT22;14769;56.934;24.176;2023-02-28T04:59:31;1.10;99.90
27270;DHT22;14769;56.934;24.176;2023-02-28T05:00:33;1.10;99.90
27270;DHT22;14769;56.934;24.176;2023-02-28T05:01:35;1.20;99.90
27270;DHT22;14769;56.934;24.176;2023-02-28T05:02:37;1.20;99.90
27270;DHT22;14769;56.934;24.176;2023-02-28T05:03:41;1.20;99.90
27270;DHT22;14769;56.934;24.176;2023-02-28T05:04:42;1.20;99.90
27270;DHT22;14769;56.934;24.176;2023-02-28T05:05:44;1.20;99.90
27270;DHT22;14769;56.934;24.176;2023-02-28T05:06:46;1.20;99.90
27270;DHT22;14769;56.934;24.176;2023-02-28T05:07:48;1.20;99.90
27270;DHT22;14769;56.934;24.176;2023-02-28T05:08:51;1.20;99.90
27270;DHT22;14769;56.934;24.176;2023-02-28T05:09:52;1.20;99.90
27270;DHT22;14769;56.934;24.176;2023-02-28T05:10:54;1.30;99.90
27270;DHT22;14769;56.934;24.176;2023-02-28T05:11:56;1.20;99.90
27270;DHT22;14769;56.934;24.176;2023-02-28T05:12:58;1.30;99.90
27270;DHT22;14769;56.934;24.176;2023-02-28T05:14:00;1.20;99.90
27270;DHT22;14769;56.934;24.176;2023-02-28T05:15:03;1.20;99.90
27270;DHT22;14769;56.934;24.176;2023-02-28T05:16:06;1.20;99.90
27270;DHT22;14769;56.934;24.176;2023-02-28T05:17:08;1.30;99.90
27270;DHT22;14769;56.934;24.176;2023-02-28T05:18:10;1.30;99.90
27270;DHT22;14769;56.934;24.176;2023-02-28T05:19:12;1.30;99.90
27270;DHT22;14769;56.934;24.176;2023-02-28T05:20:14;1.30;99.90
27270;DHT22;14769;56.934;24.176;2023-02-28T05:22:25;1.30;99.90
27270;DHT22;14769;56.934;24.176;2023-02-28T05:23:27;1.30;99.90
27270;DHT22;14769;56.934;24.176;2023-02-28T05:24:29;1.30;99.90
27270;DHT22;14769;56.934;24.176;2023-02-28T05:25:31;1.30;99.90
27270;DHT22;14769;56.934;24.176;2023-02-28T05:26:37;1.30;99.90
27270;DHT22;14769;56.934;24.176;2023-02-28T05:27:39;1.30;99.90
27270;DHT22;14769;56.934;24.176;2023-02-28T05:28:41;1.30;99.90
27270;DHT22;14769;56.934;24.176;2023-02-28T05:29:43;1.40;99.90
27270;DHT22;14769;56.934;24.176;2023-02-28T05:30:44;1.40;99.90
27270;DHT22;14769;56.934;24.176;2023-02-28T05:31:46;1.40;99.90
27270;DHT22;14769;56.934;24.176;2023-02-28T05:32:50;1.50;99.90
27270;DHT22;14769;56.934;24.176;2023-02-28T05:33:52;1.40;99.90
27270;DHT22;14769;56.934;24.176;2023-02-28T05:34:54;1.50;99.90
27270;DHT22;14769;56.934;24.176;2023-02-28T05:35:56;1.50;99.90
27270;DHT22;14769;56.934;24.176;2023-02-28T05:36:58;1.50;99.90
27270;DHT22;14769;56.934;24.176;2023-02-28T05:37:59;1.50;99.90
27270;DHT22;14769;56.934;24.176;2023-02-28T05:39:01;1.50;99.90
27270;DHT22;14769;56.934;24.176;2023-02-28T05:40:04;1.60;99.90
27270;DHT22;14769;56.934;24.176;2023-02-28T05:41:11;1.60;99.90
27270;DHT22;14769;56.934;24.176;2023-02-28T05:42:13;1.60;99.90
27270;DHT22;14769;56.934;24.176;2023-02-28T05:43:15;1.60;99.90
27270;DHT22;14769;56.934;24.176;2023-02-28T05:44:17;1.70;99.90
27270;DHT22;14769;56.934;24.176;2023-02-28T05:45:19;1.70;99.90
27270;DHT22;14769;56.934;24.176;2023-02-28T05:46:20;1.70;99.90
27270;DHT22;14769;56.934;24.176;2023-02-28T05:47:22;1.70;99.90
27270;DHT22;14769;56.934;24.176;2023-02-28T05:48:24;1.80;99.90
27270;DHT22;14769;56.934;24.176;2023-02-28T05:49:27;1.80;99.90
27270;DHT22;14769;56.934;24.176;2023-02-28T05:50:29;1.80;99.90
27270;DHT22;14769;56.934;24.176;2023-02-28T05:51:31;1.80;99.90
27270;DHT22;14769;56.934;24.176;2023-02-28T05:52:33;1.90;99.90
27270;DHT22;14769;56.934;24.176;2023-02-28T05:53:35;1.90;99.90
27270;DHT22;14769;56.934;24.176;2023-02-28T05:54:36;1.90;99.90
27270;DHT22;14769;56.934;24.176;2023-02-28T05:55:38;1.90;99.90
27270;DHT22;14769;56.934;24.176;2023-02-28T05:56:42;1.90;99.90
27270;DHT22;14769;56.934;24.176;2023-02-28T05:57:45;1.90;99.90
27270;DHT22;14769;56.934;24.176;2023-02-28T05:58:47;1.90;99.90
27270;DHT22;14769;56.934;24.176;2023-02-28T05:59:49;2.00;99.90
27270;DHT22;14769;56.934;24.176;2023-02-28T06:00:51;2.00;99.90
27270;DHT22;14769;56.934;24.176;2023-02-28T06:01:53;2.00;99.90
27270;DHT22;14769;56.934;24.176;2023-02-28T06:02:55;2.00;99.90
27270;DHT22;14769;56.934;24.176;2023-02-28T06:03:59;2.00;99.90
27270;DHT22;14769;56.934;24.176;2023-02-28T06:05:02;2.00;99.90
27270;DHT22;14769;56.934;24.176;2023-02-28T06:06:04;2.10;99.90
27270;DHT22;14769;56.934;24.176;2023-02-28T06:07:05;2.10;99.90
27270;DHT22;14769;56.934;24.176;2023-02-28T06:08:07;2.10;99.90
27270;DHT22;14769;56.934;24.176;2023-02-28T06:09:09;2.20;99.90
27270;DHT22;14769;56.934;24.176;2023-02-28T06:10:11;2.20;99.90
27270;DHT22;14769;56.934;24.176;2023-02-28T06:11:13;2.20;99.90
27270;DHT22;14769;56.934;24.176;2023-02-28T06:12:15;2.20;99.90
27270;DHT22;14769;56.934;24.176;2023-02-28T06:13:17;2.20;99.90
27270;DHT22;14769;56.934;24.176;2023-02-28T06:14:19;2.20;99.90
27270;DHT22;14769;56.934;24.176;2023-02-28T06:15:21;2.30;99.90
27270;DHT22;14769;56.934;24.176;2023-02-28T06:16:23;2.30;99.90
27270;DHT22;14769;56.934;24.176;2023-02-28T06:17:25;2.30;99.90
27270;DHT22;14769;56.934;24.176;2023-02-28T06:18:27;2.30;99.90
27270;DHT22;14769;56.934;24.176;2023-02-28T06:19:31;2.30;99.90
27270;DHT22;14769;56.934;24.176;2023-02-28T06:20:33;2.30;99.90
27270;DHT22;14769;56.934;24.176;2023-02-28T06:21:36;2.30;99.90
27270;DHT22;14769;56.934;24.176;2023-02-28T06:22:38;2.30;99.90
27270;DHT22;14769;56.934;24.176;2023-02-28T06:23:40;2.40;99.90
27270;DHT22;14769;56.934;24.176;2023-02-28T06:24:41;2.30;99.90
27270;DHT22;14769;56.934;24.176;2023-02-28T06:25:46;2.30;99.90
27270;DHT22;14769;56.934;24.176;2023-02-28T06:26:48;2.30;99.90
27270;DHT22;14769;56.934;24.176;2023-02-28T06:27:51;2.30;99.90
27270;DHT22;14769;56.934;24.176;2023-02-28T06:28:53;2.30;99.90
27270;DHT22;14769;56.934;24.176;2023-02-28T06:29:54;2.30;99.90
27270;DHT22;14769;56.934;24.176;2023-02-28T06:30:59;2.30;99.90
27270;DHT22;14769;56.934;24.176;2023-02-28T06:32:01;2.30;99.90
27270;DHT22;14769;56.934;24.176;2023-02-28T06:33:03;2.30;99.90
27270;DHT22;14769;56.934;24.176;2023-02-28T06:34:04;2.40;99.90
27270;DHT22;14769;56.934;24.176;2023-02-28T06:35:06;2.40;99.90
27270;DHT22;14769;56.934;24.176;2023-02-28T06:36:10;2.40;99.90
27270;DHT22;14769;56.934;24.176;2023-02-28T06:37:14;2.40;99.90
27270;DHT22;14769;56.934;24.176;2023-02-28T06:38:15;2.40;99.90
27270;DHT22;14769;56.934;24.176;2023-02-28T06:39:17;2.50;99.90
27270;DHT22;14769;56.934;24.176;2023-02-28T06:40:19;2.50;99.90
27270;DHT22;14769;56.934;24.176;2023-02-28T06:41:22;2.60;99.90
27270;DHT22;14769;56.934;24.176;2023-02-28T06:42:24;2.60;99.90
27270;DHT22;14769;56.934;24.176;2023-02-28T06:43:31;2.60;99.90
27270;DHT22;14769;56.934;24.176;2023-02-28T06:44:33;2.60;99.90
27270;DHT22;14769;56.934;24.176;2023-02-28T06:45:42;2.60;99.90
27270;DHT22;14769;56.934;24.176;2023-02-28T06:46:45;2.70;99.90
27270;DHT22;14769;56.934;24.176;2023-02-28T06:47:47;2.70;99.90
27270;DHT22;14769;56.934;24.176;2023-02-28T06:48:53;2.70;99.90
27270;DHT22;14769;56.934;24.176;2023-02-28T06:49:55;2.70;99.90
27270;DHT22;14769;56.934;24.176;2023-02-28T06:52:04;2.80;99.90
27270;DHT22;14769;56.934;24.176;2023-02-28T06:53:06;2.90;99.90
27270;DHT22;14769;56.934;24.176;2023-02-28T06:54:08;2.90;99.90
27270;DHT22;14769;56.934;24.176;2023-02-28T06:55:11;2.90;99.90
27270;DHT22;14769;56.934;24.176;2023-02-28T06:56:14;2.90;99.90
27270;DHT22;14769;56.934;24.176;2023-02-28T06:57:16;2.90;99.90
27270;DHT22;14769;56.934;24.176;2023-02-28T06:58:17;2.90;99.90
27270;DHT22;14769;56.934;24.176;2023-02-28T06:59:20;2.90;99.90
27270;DHT22;14769;56.934;24.176;2023-02-28T07:00:22;3.00;99.90
27270;DHT22;14769;56.934;24.176;2023-02-28T07:01:24;2.90;99.90
27270;DHT22;14769;56.934;24.176;2023-02-28T07:02:26;3.00;99.90
27270;DHT22;14769;56.934;24.176;2023-02-28T07:03:28;3.00;99.90
27270;DHT22;14769;56.934;24.176;2023-02-28T07:04:30;3.00;99.90
27270;DHT22;14769;56.934;24.176;2023-02-28T07:05:34;3.00;99.90
27270;DHT22;14769;56.934;24.176;2023-02-28T07:06:35;3.00;99.90
27270;DHT22;14769;56.934;24.176;2023-02-28T07:07:37;3.00;99.90
27270;DHT22;14769;56.934;24.176;2023-02-28T07:08:42;3.10;99.90
27270;DHT22;14769;56.934;24.176;2023-02-28T07:09:43;3.00;99.90